createdAt,value
2017-04-15T11:54:25.770Z,0
2017-04-15T11:54:51.264Z,0
2017-04-15T11:55:16.757Z,0
2017-04-15T11:55:42.262Z,0
2017-04-15T11:56:07.751Z,0
2017-04-15T11:56:33.254Z,0
2017-04-15T11:56:58.737Z,0
2017-04-15T11:57:24.226Z,0
2017-04-15T11:57:49.723Z,0
2017-04-15T11:58:15.215Z,0
2017-04-15T11:58:40.713Z,0
2017-04-15T11:59:06.218Z,0
2017-04-15T11:59:31.731Z,0
2017-04-15T11:59:57.223Z,0
2017-04-15T12:00:22.706Z,0
2017-04-15T12:00:48.204Z,0
2017-04-15T12:09:48.635Z,0
2017-04-15T12:10:14.132Z,0
2017-04-15T12:29:56.730Z,385
2017-04-15T12:30:22.245Z,90
2017-04-15T12:30:47.763Z,220
2017-04-15T12:31:13.315Z,475
2017-04-15T12:31:38.823Z,555
2017-04-15T12:32:04.311Z,715
2017-04-15T12:32:29.802Z,1055
2017-04-15T12:32:55.338Z,1165
2017-04-15T12:33:20.834Z,1140
2017-04-15T12:33:46.333Z,1040
2017-04-15T12:34:11.801Z,1040
2017-04-15T12:34:37.291Z,1035
2017-04-15T12:35:02.796Z,1035
2017-04-15T12:35:28.337Z,1030
2017-04-15T12:35:53.902Z,1000
2017-04-15T12:36:19.378Z,875
2017-04-15T12:36:44.924Z,765
2017-04-15T12:37:10.420Z,750
2017-04-15T12:37:35.973Z,855
2017-04-15T12:38:01.493Z,1035
2017-04-15T12:38:26.983Z,1050
2017-04-15T12:38:52.480Z,990
2017-04-15T12:39:18.034Z,905
2017-04-15T12:39:43.565Z,840
2017-04-15T12:40:09.274Z,840
2017-04-15T12:40:34.933Z,870
2017-04-15T12:41:00.513Z,840
2017-04-15T12:41:26.022Z,805
2017-04-15T12:41:51.543Z,785
2017-04-15T12:42:17.067Z,725
2017-04-15T12:42:42.571Z,565
2017-04-15T12:43:08.065Z,520
2017-04-15T12:43:33.609Z,645
2017-04-15T12:43:59.088Z,570
2017-04-15T12:44:24.567Z,470
2017-04-15T12:44:50.061Z,360
2017-04-15T12:45:15.590Z,340
2017-04-15T12:45:41.106Z,270
2017-04-15T12:46:06.625Z,225
2017-04-15T12:46:32.132Z,225
2017-04-15T12:46:57.620Z,195
2017-04-15T12:47:23.148Z,185
2017-04-15T12:47:48.712Z,195
2017-04-15T12:48:14.218Z,215
2017-04-15T12:48:39.731Z,215
2017-04-15T12:49:05.303Z,215
2017-04-15T12:49:30.814Z,220
2017-04-15T12:49:56.300Z,220
2017-04-15T12:50:21.779Z,225
2017-04-15T12:50:47.276Z,225
2017-04-15T12:51:12.768Z,210
2017-04-15T12:51:38.295Z,195
2017-04-15T12:52:03.815Z,205
2017-04-15T12:52:29.304Z,220
2017-04-15T12:52:54.824Z,255
2017-04-15T12:53:20.310Z,295
2017-04-15T12:53:45.806Z,305
2017-04-15T12:54:11.304Z,315
2017-04-15T12:54:36.793Z,325
2017-04-15T12:55:02.317Z,345
2017-04-15T12:55:27.794Z,355
2017-04-15T12:55:53.329Z,380
2017-04-15T12:56:18.834Z,410
2017-04-15T12:56:44.316Z,570
2017-04-15T12:57:09.826Z,485
2017-04-15T12:57:35.345Z,700
2017-04-15T12:58:00.836Z,570
2017-04-15T12:58:26.346Z,660
2017-04-15T12:58:51.816Z,790
2017-04-15T12:59:17.328Z,1195
2017-04-15T12:59:42.815Z,1135
2017-04-15T13:00:08.353Z,1170
2017-04-15T13:00:33.908Z,1065
2017-04-15T13:00:59.418Z,750
2017-04-15T13:01:24.903Z,955
2017-04-15T13:01:50.418Z,830
2017-04-15T13:02:15.923Z,580
2017-04-15T13:02:41.442Z,500
2017-04-15T13:03:06.894Z,610
2017-04-15T13:03:32.398Z,1030
2017-04-15T13:03:57.882Z,1005
2017-04-15T13:04:23.385Z,1045
2017-04-15T13:04:48.892Z,600
2017-04-15T13:05:14.383Z,630
2017-04-15T13:05:39.857Z,820
2017-04-15T13:06:05.337Z,550
2017-04-15T13:06:30.831Z,420
2017-04-15T13:06:56.356Z,365
2017-04-15T13:07:21.830Z,310
2017-04-15T13:07:47.317Z,265
2017-04-15T13:08:12.788Z,250
2017-04-15T13:08:38.300Z,260
2017-04-15T13:09:03.804Z,285
2017-04-15T13:09:29.393Z,255
2017-04-15T13:09:54.878Z,235
2017-04-15T13:10:20.344Z,210
2017-04-15T13:10:45.820Z,185
2017-04-15T13:11:11.305Z,185
2017-04-15T13:11:36.799Z,190
2017-04-15T13:12:02.276Z,190
2017-04-15T13:12:27.741Z,180
2017-04-15T13:12:53.221Z,165
2017-04-15T13:13:18.718Z,150
2017-04-15T13:13:44.212Z,150
2017-04-15T13:14:09.704Z,145
2017-04-15T13:14:35.181Z,150
2017-04-15T13:15:00.656Z,160
2017-04-15T13:15:26.189Z,170
2017-04-15T13:15:51.670Z,185
2017-04-15T13:16:17.153Z,205
2017-04-15T13:16:42.637Z,230
2017-04-15T13:17:08.116Z,270
2017-04-15T13:17:33.629Z,315
2017-04-15T13:17:59.153Z,375
2017-04-15T13:18:24.693Z,425
2017-04-15T13:18:50.222Z,670
2017-04-15T13:19:15.730Z,865
2017-04-15T13:19:41.229Z,910
2017-04-15T13:20:06.744Z,770
2017-04-15T13:20:32.267Z,595
2017-04-15T13:20:57.745Z,450
2017-04-15T13:21:23.225Z,405
2017-04-15T13:21:48.767Z,370
2017-04-15T13:22:14.249Z,335
2017-04-15T13:22:39.738Z,310
2017-04-15T13:23:05.277Z,300
2017-04-15T13:23:30.758Z,295
2017-04-15T13:23:56.276Z,300
2017-04-15T13:24:21.784Z,305
2017-04-15T13:24:47.289Z,315
2017-04-15T13:25:12.758Z,305
2017-04-15T13:25:38.299Z,300
2017-04-15T13:26:03.766Z,275
2017-04-15T13:26:29.279Z,250
2017-04-15T13:26:54.765Z,230
2017-04-15T13:27:20.292Z,210
2017-04-15T13:27:45.790Z,185
2017-04-15T13:28:11.300Z,170
2017-04-15T13:28:36.823Z,165
2017-04-15T13:29:02.350Z,150
2017-04-15T13:29:27.875Z,140
2017-04-15T13:29:53.421Z,130
2017-04-15T13:30:18.920Z,120
2017-04-15T13:30:44.410Z,110
2017-04-15T13:31:09.974Z,100
2017-04-15T13:31:35.533Z,95
2017-04-15T13:32:01.027Z,90
2017-04-15T13:32:26.570Z,85
2017-04-15T13:32:52.092Z,80
2017-04-15T13:33:17.647Z,80
2017-04-15T13:33:43.192Z,80
2017-04-15T13:34:08.776Z,85
2017-04-15T13:34:34.385Z,90
2017-04-15T13:34:59.806Z,105
2017-04-15T13:35:25.424Z,115
2017-04-15T13:35:50.945Z,135
2017-04-15T13:36:16.477Z,150
2017-04-15T13:36:41.943Z,170
2017-04-15T13:37:07.517Z,190
2017-04-15T13:37:33.013Z,210
2017-04-15T13:37:58.530Z,230
2017-04-15T13:38:24.032Z,240
2017-04-15T13:38:49.520Z,260
2017-04-15T13:39:15.003Z,285
2017-04-15T13:39:40.525Z,325
2017-04-15T13:40:06.037Z,350
2017-04-15T13:40:31.544Z,390
2017-04-15T13:40:57.083Z,470
2017-04-15T13:41:22.592Z,460
2017-04-15T13:41:48.109Z,465
2017-04-15T13:42:13.714Z,450
2017-04-15T13:42:39.151Z,405
2017-04-15T13:43:04.655Z,390
2017-04-15T13:43:30.239Z,385
2017-04-15T13:43:55.740Z,385
2017-04-15T13:44:21.210Z,415
2017-04-15T13:44:46.772Z,405
2017-04-15T13:45:12.281Z,400
2017-04-15T13:45:37.824Z,410
2017-04-15T13:46:03.330Z,415
2017-04-15T13:46:28.859Z,435
2017-04-15T13:46:54.313Z,420
2017-04-15T13:47:19.825Z,440
2017-04-15T13:47:45.289Z,425
2017-04-15T13:48:10.823Z,435
2017-04-15T13:48:36.341Z,450
2017-04-15T13:49:01.889Z,465
2017-04-15T13:49:27.387Z,465
2017-04-15T13:49:52.882Z,440
2017-04-15T13:50:18.388Z,445
2017-04-15T13:50:43.917Z,435
2017-04-15T13:51:52.157Z,455
2017-04-15T13:52:17.604Z,460
2017-04-15T13:52:43.106Z,460
2017-04-15T13:53:08.600Z,465
2017-04-15T13:53:34.109Z,460
2017-04-15T13:53:59.662Z,465
2017-04-15T13:54:25.139Z,460
2017-04-15T13:54:50.641Z,470
2017-04-15T13:55:16.127Z,470
2017-04-15T13:55:41.680Z,490
2017-04-15T13:56:07.199Z,505
2017-04-15T13:56:32.767Z,540
2017-04-15T13:56:58.339Z,550
2017-04-15T13:57:23.850Z,600
2017-04-15T13:57:49.401Z,645
2017-04-15T13:58:14.873Z,705
2017-04-15T13:58:40.393Z,770
2017-04-15T13:59:05.914Z,800
2017-04-15T13:59:31.369Z,795
2017-04-15T13:59:56.873Z,840
2017-04-15T14:00:22.446Z,870
2017-04-15T14:00:47.953Z,835
2017-04-15T14:01:13.480Z,835
2017-04-15T14:01:38.958Z,810
2017-04-15T14:02:04.434Z,830
2017-04-15T14:02:29.957Z,845
2017-04-15T14:02:55.443Z,835
2017-04-15T14:03:20.939Z,825
2017-04-15T14:03:46.492Z,835
2017-04-15T14:04:11.996Z,835
2017-04-15T14:04:37.557Z,840
2017-04-15T14:05:03.030Z,810
2017-04-15T14:05:28.650Z,800
2017-04-15T14:05:54.126Z,775
2017-04-15T14:06:19.627Z,715
2017-04-15T14:06:45.183Z,675
2017-04-15T14:07:10.765Z,620
2017-04-15T14:07:36.321Z,590
2017-04-15T14:08:01.807Z,585
2017-04-15T14:08:27.295Z,570
2017-04-15T14:08:52.804Z,565
2017-04-15T14:09:18.298Z,570
2017-04-15T14:09:43.801Z,570
2017-04-15T14:10:09.343Z,605
2017-04-15T14:10:34.820Z,625
2017-04-15T14:11:00.346Z,605
2017-04-15T14:11:25.824Z,580
2017-04-15T14:11:51.321Z,580
2017-04-15T14:12:16.884Z,570
2017-04-15T14:12:42.351Z,570
2017-04-15T14:13:07.894Z,550
2017-04-15T14:13:33.393Z,540
2017-04-15T14:13:58.864Z,525
2017-04-15T14:14:24.433Z,530
2017-04-15T14:14:49.943Z,525
2017-04-15T14:15:15.433Z,525
2017-04-15T14:15:40.921Z,535
2017-04-15T14:16:06.437Z,550
2017-04-15T14:16:32.037Z,535
2017-04-15T14:16:57.559Z,535
2017-04-15T14:17:23.088Z,550
2017-04-15T14:17:48.613Z,535
2017-04-15T14:18:14.110Z,520
2017-04-15T14:18:39.575Z,515
2017-04-15T14:19:05.061Z,520
2017-04-15T14:19:30.561Z,515
2017-04-15T14:19:56.135Z,510
2017-04-15T14:20:21.664Z,495
2017-04-15T14:20:47.145Z,495
2017-04-15T14:21:12.699Z,495
2017-04-15T14:21:38.218Z,495
2017-04-15T14:22:03.752Z,495
2017-04-15T14:22:29.265Z,445
2017-04-15T14:22:54.859Z,510
2017-04-15T14:23:20.363Z,530
2017-04-15T14:23:45.871Z,540
2017-04-15T14:24:11.433Z,545
2017-04-15T14:24:37.011Z,540
2017-04-15T14:25:02.506Z,540
2017-04-15T14:25:28.096Z,595
2017-04-15T14:25:53.628Z,555
2017-04-15T14:26:19.191Z,495
2017-04-15T14:26:44.746Z,490
2017-04-15T14:27:10.346Z,490
2017-04-15T14:27:35.915Z,495
2017-04-15T14:28:01.478Z,480
2017-04-15T14:28:26.982Z,460
2017-04-15T14:28:52.570Z,425
2017-04-15T14:29:18.057Z,415
2017-04-15T14:29:43.642Z,400
2017-04-15T14:30:09.191Z,380
2017-04-15T14:30:34.757Z,360
2017-04-15T14:31:00.367Z,350
2017-04-15T14:31:25.948Z,350
2017-04-15T14:31:51.507Z,340
2017-04-15T14:32:17.068Z,365
2017-04-15T14:32:42.674Z,400
2017-04-15T14:33:08.312Z,380
2017-04-15T14:33:33.798Z,365
2017-04-15T14:33:59.401Z,375
2017-04-15T14:34:24.937Z,375
2017-04-15T14:34:50.459Z,375
2017-04-15T14:35:15.976Z,375
2017-04-15T14:35:41.613Z,380
2017-04-15T14:36:07.186Z,400
2017-04-15T14:36:32.779Z,430
2017-04-15T14:36:58.347Z,465
2017-04-15T14:37:23.987Z,475
2017-04-15T14:37:49.487Z,470
2017-04-15T14:38:15.036Z,465
2017-04-15T14:38:40.602Z,475
2017-04-15T14:39:06.123Z,470
2017-04-15T14:39:31.670Z,470
2017-04-15T14:39:57.348Z,480
2017-04-15T14:40:22.879Z,505
2017-04-15T14:40:48.415Z,510
2017-04-15T14:41:13.972Z,545
2017-04-15T14:41:39.514Z,560
2017-04-15T14:42:04.979Z,605
2017-04-15T14:42:30.472Z,645
2017-04-15T14:42:55.980Z,665
2017-04-15T14:43:21.492Z,680
2017-04-15T14:43:46.965Z,720
2017-04-15T14:44:12.467Z,780
2017-04-15T14:44:37.994Z,700
2017-04-15T14:45:03.499Z,640
2017-04-15T14:45:29.004Z,630
2017-04-15T14:45:54.488Z,640
2017-04-15T14:46:20.013Z,630
2017-04-15T14:46:45.522Z,615
2017-04-15T14:47:11.015Z,610
2017-04-15T14:47:36.504Z,615
2017-04-15T14:48:02.014Z,515
2017-04-15T14:48:27.553Z,450
2017-04-15T14:48:53.066Z,450
2017-04-15T14:49:18.541Z,460
2017-04-15T14:49:44.051Z,555
2017-04-15T14:50:09.591Z,550
2017-04-15T14:50:35.107Z,570
2017-04-15T14:51:00.628Z,575
2017-04-15T14:51:26.143Z,600
2017-04-15T14:51:51.675Z,625
2017-04-15T14:52:17.210Z,620
2017-04-15T14:52:42.749Z,600
2017-04-15T14:53:08.265Z,570
2017-04-15T14:53:33.755Z,430
2017-04-15T14:53:59.254Z,415
2017-04-15T14:54:24.756Z,485
2017-04-15T14:54:50.258Z,535
2017-04-15T14:55:15.746Z,505
2017-04-15T14:55:41.341Z,390
2017-04-15T14:56:06.845Z,410
2017-04-15T14:56:32.359Z,650
2017-04-15T14:56:57.841Z,685
2017-04-15T14:57:23.318Z,685
2017-04-15T14:57:48.826Z,465
2017-04-15T14:58:14.311Z,480
2017-04-15T14:58:39.811Z,395
2017-04-15T14:59:05.320Z,355
2017-04-15T14:59:30.802Z,340
2017-04-15T14:59:56.297Z,330
2017-04-15T15:00:21.826Z,345
2017-04-15T15:00:47.368Z,395
2017-04-15T15:01:12.843Z,545
2017-04-15T15:01:38.368Z,405
2017-04-15T15:02:03.891Z,460
2017-04-15T15:02:29.392Z,415
2017-04-15T15:02:54.914Z,410
2017-04-15T15:03:20.455Z,490
2017-04-15T15:03:45.990Z,550
2017-04-15T15:04:11.491Z,525
2017-04-15T15:04:36.991Z,485
2017-04-15T15:05:02.482Z,605
2017-04-15T15:05:28.028Z,605
2017-04-15T15:05:53.530Z,615
2017-04-15T15:06:19.143Z,650
2017-04-15T15:06:44.648Z,660
2017-04-15T15:07:10.154Z,655
2017-04-15T15:07:35.881Z,590
2017-04-15T15:08:01.389Z,655
2017-04-15T15:08:26.907Z,700
2017-04-15T15:08:52.398Z,735
2017-04-15T15:09:17.891Z,825
2017-04-15T15:09:43.390Z,930
2017-04-15T15:10:08.881Z,940
2017-04-15T15:10:34.371Z,990
2017-04-15T15:10:59.906Z,900
2017-04-15T15:11:25.429Z,840
2017-04-15T15:11:50.960Z,880
2017-04-15T15:12:16.464Z,910
2017-04-15T15:12:42.037Z,960
2017-04-15T15:13:07.532Z,965
2017-04-15T15:13:33.025Z,925
2017-04-15T15:13:58.528Z,960
2017-04-15T15:14:24.030Z,1035
2017-04-15T15:14:49.574Z,1095
2017-04-15T15:15:15.088Z,1085
2017-04-15T15:15:40.607Z,1125
2017-04-15T15:16:06.153Z,1145
2017-04-15T15:16:31.634Z,1180
2017-04-15T15:16:57.108Z,1210
2017-04-15T15:17:22.617Z,1205
2017-04-15T15:17:48.189Z,1250
2017-04-15T15:18:13.692Z,1220
2017-04-15T15:18:39.200Z,1245
2017-04-15T15:19:04.718Z,1230
2017-04-15T15:19:30.235Z,1215
2017-04-15T15:19:55.751Z,1210
2017-04-15T15:20:21.288Z,1215
2017-04-15T15:20:46.818Z,1205
2017-04-15T15:21:12.320Z,1215
2017-04-15T15:21:37.830Z,1190
2017-04-15T15:22:03.328Z,1160
2017-04-15T15:22:28.805Z,1185
2017-04-15T15:22:54.320Z,1250
2017-04-15T15:23:19.819Z,1280
2017-04-15T15:23:45.303Z,1280
2017-04-15T15:24:10.848Z,1305
2017-04-15T15:24:36.403Z,1355
2017-04-15T15:25:01.924Z,1475
2017-04-15T15:25:27.446Z,1525
2017-04-15T15:25:52.915Z,1540
2017-04-15T15:26:18.441Z,1530
2017-04-15T15:26:43.923Z,1320
2017-04-15T15:27:09.432Z,1380
2017-04-15T15:27:34.930Z,1315
2017-04-15T15:28:00.528Z,1270
2017-04-15T15:28:26.070Z,1215
2017-04-15T15:28:51.642Z,1090
2017-04-15T15:29:17.153Z,950
2017-04-15T15:29:42.610Z,895
2017-04-15T15:30:08.144Z,915
2017-04-15T15:30:33.693Z,865
2017-04-15T15:30:59.223Z,855
2017-04-15T15:31:24.734Z,985
2017-04-15T15:31:50.202Z,950
2017-04-15T15:32:15.708Z,905
2017-04-15T15:32:41.194Z,735
2017-04-15T15:33:55.088Z,360
2017-04-15T15:34:20.576Z,340
2017-04-15T15:34:46.079Z,335
2017-04-15T15:35:11.588Z,310
2017-04-15T15:35:37.084Z,295
2017-04-15T15:36:02.583Z,295
2017-04-15T15:36:28.068Z,300
2017-04-15T15:36:53.571Z,315
2017-04-15T15:37:19.139Z,550
2017-04-15T15:37:44.598Z,1000
2017-04-15T15:38:10.111Z,1015
2017-04-15T15:38:35.619Z,995
2017-04-15T15:39:01.138Z,420
2017-04-15T15:39:26.638Z,720
2017-04-15T15:39:52.163Z,1045
2017-04-15T15:40:17.664Z,1065
2017-04-15T15:40:43.154Z,1030
2017-04-15T15:41:08.707Z,920
2017-04-15T15:41:34.192Z,760
2017-04-15T15:41:59.690Z,595
2017-04-15T15:42:25.211Z,275
2017-04-15T15:42:50.723Z,245
2017-04-15T15:43:16.268Z,230
2017-04-15T15:43:41.782Z,230
2017-04-15T15:44:07.294Z,240
2017-04-15T15:44:32.822Z,240
2017-04-15T15:44:58.349Z,255
2017-04-15T15:45:23.847Z,390
2017-04-15T15:45:49.338Z,500
2017-04-15T15:46:14.871Z,550
2017-04-15T15:46:40.423Z,350
2017-04-15T15:47:05.967Z,335
2017-04-15T15:47:31.481Z,295
2017-04-15T15:47:56.965Z,290
2017-04-15T15:48:22.506Z,290
2017-04-15T15:48:48.009Z,300
2017-04-15T15:49:13.486Z,315
2017-04-15T15:49:38.993Z,530
2017-04-15T15:50:04.497Z,455
2017-04-15T15:50:30.019Z,460
2017-04-15T15:50:55.486Z,520
2017-04-15T15:51:20.984Z,475
2017-04-15T15:51:46.486Z,450
2017-04-15T15:52:12.041Z,375
2017-04-15T15:52:37.551Z,475
2017-04-15T15:53:03.049Z,505
2017-04-15T15:53:28.553Z,490
2017-04-15T15:53:54.070Z,525
2017-04-15T15:54:19.577Z,715
2017-04-15T15:54:45.130Z,645
2017-04-15T15:55:10.633Z,655
2017-04-15T15:55:36.217Z,860
2017-04-15T15:56:01.761Z,990
2017-04-15T15:56:27.248Z,980
2017-04-15T15:56:52.810Z,960
2017-04-15T15:57:18.359Z,895
2017-04-15T15:57:43.879Z,920
2017-04-15T15:58:09.371Z,890
2017-04-15T15:58:34.910Z,880
2017-04-15T15:59:00.400Z,885
2017-04-15T15:59:25.890Z,845
2017-04-15T15:59:51.427Z,335
2017-04-15T16:00:16.958Z,285
2017-04-15T16:00:42.474Z,255
2017-04-15T16:01:07.982Z,235
2017-04-15T16:01:33.550Z,225
2017-04-15T16:01:59.090Z,250
2017-04-15T16:02:24.592Z,250
2017-04-15T16:02:50.125Z,300
2017-04-15T16:03:15.640Z,535
2017-04-15T16:03:41.138Z,580
2017-04-15T16:04:06.637Z,655
2017-04-15T16:04:32.145Z,675
2017-04-15T16:04:57.651Z,560
2017-04-15T16:05:23.138Z,285
2017-04-15T16:05:48.651Z,280
2017-04-15T16:06:14.167Z,280
2017-04-15T16:06:39.653Z,275
2017-04-15T16:07:05.208Z,265
2017-04-15T16:07:30.702Z,255
2017-04-15T16:07:56.168Z,245
2017-04-15T16:08:21.662Z,245
2017-04-15T16:08:47.160Z,235
2017-04-15T16:09:12.656Z,220
2017-04-15T16:09:38.153Z,215
2017-04-15T16:10:03.638Z,225
2017-04-15T16:10:29.124Z,245
2017-04-15T16:10:54.614Z,245
2017-04-15T16:11:20.135Z,235
2017-04-15T16:11:45.631Z,230
2017-04-15T16:12:11.151Z,225
2017-04-15T16:12:36.660Z,225
2017-04-15T16:13:02.149Z,225
2017-04-15T16:13:27.652Z,230
2017-04-15T16:13:53.139Z,220
2017-04-15T16:14:18.683Z,240
2017-04-15T16:14:44.175Z,245
2017-04-15T16:15:09.685Z,225
2017-04-15T16:15:35.199Z,225
2017-04-15T16:16:00.721Z,245
2017-04-15T16:16:26.214Z,400
2017-04-15T16:16:51.726Z,350
2017-04-15T16:17:17.208Z,280
2017-04-15T16:17:42.698Z,300
2017-04-15T16:18:08.204Z,290
2017-04-15T16:18:33.725Z,285
2017-04-15T16:18:59.229Z,265
2017-04-15T16:19:24.712Z,245
2017-04-15T16:19:50.237Z,220
2017-04-15T16:20:15.773Z,195
2017-04-15T16:20:41.263Z,170
2017-04-15T16:21:06.743Z,155
2017-04-15T16:21:32.219Z,145
2017-04-15T16:21:57.742Z,135
2017-04-15T16:22:23.234Z,135
2017-04-15T16:22:48.684Z,140
2017-04-15T16:23:14.194Z,140
2017-04-15T16:23:39.726Z,145
2017-04-15T16:24:05.245Z,160
2017-04-15T16:24:30.729Z,175
2017-04-15T16:24:56.279Z,220
2017-04-15T16:25:21.781Z,660
2017-04-15T16:25:47.260Z,675
2017-04-15T16:26:12.750Z,670
2017-04-15T16:26:38.244Z,540
2017-04-15T16:27:03.761Z,375
2017-04-15T16:27:29.301Z,525
2017-04-15T16:27:54.788Z,715
2017-04-15T16:28:20.258Z,210
2017-04-15T16:28:45.748Z,200
2017-04-15T16:29:11.314Z,195
2017-04-15T16:29:36.835Z,185
2017-04-15T16:30:02.312Z,175
2017-04-15T16:30:27.846Z,165
2017-04-15T16:30:53.355Z,150
2017-04-15T16:31:18.897Z,145
2017-04-15T16:31:44.409Z,145
2017-04-15T16:32:09.932Z,180
2017-04-15T16:32:35.467Z,165
2017-04-15T16:33:00.926Z,215
2017-04-15T16:33:26.512Z,310
2017-04-15T16:33:51.993Z,190
2017-04-15T16:34:17.471Z,190
2017-04-15T16:34:42.960Z,195
2017-04-15T16:35:08.471Z,200
2017-04-15T16:35:34.020Z,195
2017-04-15T16:35:59.558Z,185
2017-04-15T16:36:25.082Z,180
2017-04-15T16:36:50.590Z,175
2017-04-15T16:37:16.091Z,170
2017-04-15T16:37:41.679Z,150
2017-04-15T16:38:07.186Z,135
2017-04-15T16:38:32.674Z,125
2017-04-15T16:38:58.177Z,120
2017-04-15T16:39:23.677Z,120
2017-04-15T16:39:49.199Z,115
2017-04-15T16:40:14.713Z,115
2017-04-15T16:40:40.224Z,120
2017-04-15T16:41:05.751Z,115
2017-04-15T16:41:31.274Z,110
2017-04-15T16:41:56.807Z,110
2017-04-15T16:42:22.355Z,110
2017-04-15T16:42:47.861Z,115
2017-04-15T16:43:13.444Z,115
2017-04-15T16:43:38.946Z,115
2017-04-15T16:44:04.424Z,120
2017-04-15T16:44:29.925Z,120
2017-04-15T16:44:55.431Z,120
2017-04-15T16:45:20.947Z,125
2017-04-15T16:45:46.468Z,130
2017-04-15T16:46:11.948Z,350
2017-04-15T16:46:37.449Z,165
2017-04-15T16:47:02.978Z,295
2017-04-15T16:47:28.487Z,415
2017-04-15T16:47:53.992Z,380
2017-04-15T16:48:19.525Z,395
2017-04-15T16:48:45.045Z,220
2017-04-15T16:49:10.569Z,295
2017-04-15T16:49:36.053Z,245
2017-04-15T16:50:01.598Z,380
2017-04-15T16:50:27.167Z,300
2017-04-15T16:50:52.650Z,185
2017-04-15T16:51:18.209Z,185
2017-04-15T16:51:43.716Z,190
2017-04-15T16:52:09.217Z,295
2017-04-15T16:52:34.712Z,180
2017-04-15T16:53:00.203Z,165
2017-04-15T16:53:25.675Z,170
2017-04-15T16:53:51.178Z,165
2017-04-15T16:54:16.682Z,140
2017-04-15T16:54:42.244Z,125
2017-04-15T16:55:07.746Z,120
2017-04-15T16:55:33.254Z,115
2017-04-15T16:55:58.752Z,110
2017-04-15T16:56:24.265Z,110
2017-04-15T16:56:49.768Z,105
2017-04-15T16:57:15.269Z,105
2017-04-15T16:57:40.757Z,105
2017-04-15T16:58:06.253Z,105
2017-04-15T16:58:31.753Z,100
2017-04-15T16:58:57.283Z,100
2017-04-15T16:59:22.766Z,100
2017-04-15T16:59:48.227Z,100
2017-04-15T17:00:13.771Z,100
2017-04-15T17:00:39.289Z,100
2017-04-15T17:01:04.787Z,95
2017-04-15T17:01:30.310Z,95
2017-04-15T17:01:55.861Z,95
2017-04-15T17:02:21.350Z,95
2017-04-15T17:02:46.832Z,95
2017-04-15T17:03:12.365Z,95
2017-04-15T17:03:37.856Z,90
2017-04-15T17:04:03.364Z,85
2017-04-15T17:04:28.884Z,80
2017-04-15T17:04:54.400Z,75
2017-04-15T17:05:19.896Z,70
2017-04-15T17:05:45.389Z,65
2017-04-15T17:06:10.873Z,60
2017-04-15T17:06:36.353Z,60
2017-04-15T17:07:01.867Z,60
2017-04-15T17:07:27.467Z,60
2017-04-15T17:07:53.006Z,60
2017-04-15T17:08:18.487Z,85
2017-04-15T17:08:44.003Z,165
2017-04-15T17:09:09.513Z,160
2017-04-15T17:09:35.016Z,175
2017-04-15T17:10:00.512Z,180
2017-04-15T17:10:26.051Z,145
2017-04-15T17:10:51.539Z,170
2017-04-15T17:11:17.033Z,75
2017-04-15T17:11:42.533Z,80
2017-04-15T17:12:08.089Z,110
2017-04-15T17:12:33.565Z,160
2017-04-15T17:12:59.025Z,105
2017-04-15T17:13:24.553Z,110
2017-04-15T17:13:50.082Z,115
2017-04-15T17:14:15.604Z,135
2017-04-15T17:14:41.179Z,145
2017-04-15T17:15:06.666Z,145
2017-04-15T17:15:32.207Z,140
2017-04-15T17:15:57.711Z,135
2017-04-15T17:16:23.227Z,110
2017-04-15T17:16:48.721Z,105
2017-04-15T17:17:14.246Z,95
2017-04-15T17:17:39.769Z,90
2017-04-15T17:18:05.295Z,85
2017-04-15T17:18:30.794Z,85
2017-04-15T17:18:56.290Z,80
2017-04-15T17:19:21.765Z,80
2017-04-15T17:19:47.311Z,80
2017-04-15T17:20:12.808Z,100
2017-04-15T17:20:38.317Z,115
2017-04-15T17:21:03.852Z,130
2017-04-15T17:21:29.357Z,120
2017-04-15T17:21:54.848Z,140
2017-04-15T17:22:20.416Z,135
2017-04-15T17:22:45.924Z,105
2017-04-15T17:23:11.423Z,130
2017-04-15T17:23:36.918Z,125
2017-04-15T17:24:02.418Z,120
2017-04-15T17:24:27.915Z,120
2017-04-15T17:24:53.396Z,110
2017-04-15T17:25:18.888Z,100
2017-04-15T17:25:44.408Z,100
2017-04-15T17:26:09.904Z,105
2017-04-15T17:26:35.414Z,105
2017-04-15T17:27:00.962Z,105
2017-04-15T17:27:26.491Z,110
2017-04-15T17:27:51.977Z,115
2017-04-15T17:28:17.545Z,115
2017-04-15T17:28:43.091Z,115
2017-04-15T17:29:08.587Z,115
2017-04-15T17:29:34.096Z,115
2017-04-15T17:29:59.654Z,110
2017-04-15T17:30:25.189Z,100
2017-04-15T17:30:50.714Z,95
2017-04-15T17:31:16.265Z,95
2017-04-15T17:31:41.802Z,95
2017-04-15T17:32:07.263Z,95
2017-04-15T17:32:32.752Z,90
2017-04-15T17:32:58.351Z,85
2017-04-15T17:33:23.826Z,80
2017-04-15T17:33:49.376Z,75
2017-04-15T17:34:14.947Z,80
2017-04-15T17:34:40.470Z,70
2017-04-15T17:35:05.943Z,70
2017-04-15T17:35:31.445Z,65
2017-04-15T17:35:56.972Z,65
2017-04-15T17:36:22.472Z,65
2017-04-15T17:36:47.981Z,65
2017-04-15T17:37:13.458Z,65
2017-04-15T17:37:38.961Z,65
2017-04-15T17:38:04.481Z,65
2017-04-15T17:38:29.999Z,65
2017-04-15T17:38:55.502Z,60
2017-04-15T17:39:21.042Z,60
2017-04-15T17:39:46.642Z,60
2017-04-15T17:40:12.081Z,60
2017-04-15T17:40:37.561Z,60
2017-04-15T17:41:03.055Z,60
2017-04-15T17:41:28.558Z,60
2017-04-15T17:41:54.109Z,60
2017-04-15T17:42:19.621Z,60
2017-04-15T17:42:45.110Z,60
2017-04-15T17:43:10.598Z,60
2017-04-15T17:43:36.098Z,55
2017-04-15T17:44:01.618Z,55
2017-04-15T17:44:27.122Z,55
2017-04-15T17:44:52.652Z,55
2017-04-15T17:45:18.195Z,55
2017-04-15T17:45:43.707Z,55
2017-04-15T17:46:09.190Z,50
2017-04-15T17:46:34.719Z,50
2017-04-15T17:47:00.208Z,50
2017-04-15T17:47:25.704Z,50
2017-04-15T17:47:51.191Z,50
2017-04-15T17:48:16.727Z,50
2017-04-15T17:48:42.228Z,45
2017-04-15T17:49:07.685Z,45
2017-04-15T17:49:33.141Z,45
2017-04-15T17:49:59.543Z,45
2017-04-15T17:50:25.056Z,45
2017-04-15T17:50:50.549Z,45
2017-04-15T17:51:16.086Z,40
2017-04-15T17:51:41.578Z,40
2017-04-15T17:52:07.064Z,40
2017-04-15T17:52:32.574Z,40
2017-04-15T17:52:58.146Z,40
2017-04-15T17:53:23.669Z,40
2017-04-15T17:53:49.199Z,40
2017-04-15T17:54:14.704Z,35
2017-04-15T17:54:40.216Z,35
2017-04-15T17:55:05.725Z,35
2017-04-15T17:55:31.252Z,35
2017-04-15T17:55:56.803Z,35
2017-04-15T17:56:22.346Z,35
2017-04-15T17:56:47.961Z,35
2017-04-15T17:57:13.485Z,30
2017-04-15T17:57:38.995Z,30
2017-04-15T17:58:04.502Z,30
2017-04-15T17:58:30.044Z,30
2017-04-15T17:58:55.570Z,30
2017-04-15T17:59:21.089Z,30
2017-04-15T17:59:46.605Z,30
2017-04-15T18:00:12.132Z,25
2017-04-15T18:00:37.679Z,25
2017-04-15T18:01:03.206Z,25
2017-04-15T18:01:28.738Z,25
2017-04-15T18:01:54.294Z,25
2017-04-15T18:02:19.808Z,25
2017-04-15T18:02:45.318Z,25
2017-04-15T18:03:10.902Z,25
2017-04-15T18:03:36.395Z,20
2017-04-15T18:04:01.958Z,20
2017-04-15T18:04:27.521Z,20
2017-04-15T18:04:53.108Z,20
2017-04-15T18:05:18.586Z,20
2017-04-15T18:05:44.086Z,20
2017-04-15T18:06:09.595Z,20
2017-04-15T18:06:35.103Z,20
2017-04-15T18:07:00.708Z,20
2017-04-15T18:07:26.211Z,15
2017-04-15T18:07:51.706Z,15
2017-04-15T18:08:17.229Z,15
2017-04-15T18:08:42.861Z,15
2017-04-15T18:09:08.371Z,15
2017-04-15T18:09:33.852Z,15
2017-04-15T18:09:59.344Z,15
2017-04-15T18:10:24.835Z,15
2017-04-15T18:10:50.398Z,10
2017-04-15T18:11:15.821Z,10
2017-04-15T18:11:41.342Z,10
2017-04-15T18:12:06.842Z,10
2017-04-15T18:12:32.325Z,10
2017-04-15T18:12:57.840Z,10
2017-04-15T18:13:23.373Z,10
2017-04-15T18:13:48.866Z,10
2017-04-15T18:14:14.385Z,10
2017-04-15T18:14:39.909Z,10
2017-04-15T18:15:05.391Z,10
2017-04-15T18:15:30.897Z,10
2017-04-15T18:15:56.393Z,10
2017-04-15T18:16:21.889Z,10
2017-04-15T18:16:47.364Z,10